createdAt,value
2023-03-12T00:01:18.841Z,-3.12
2023-03-12T00:03:47.515Z,-3.09
2023-03-12T00:06:16.623Z,-3.22
2023-03-12T00:08:45.339Z,-3.38
2023-03-12T00:11:16.428Z,-3.24
2023-03-12T00:13:46.346Z,-3.41
2023-03-12T00:16:16.651Z,-3.37
2023-03-12T00:18:45.592Z,-3.44
2023-03-12T00:21:13.948Z,-3.41
2023-03-12T00:23:42.381Z,-3.40
2023-03-12T00:26:13.260Z,-3.69
2023-03-12T00:28:42.369Z,-3.60
2023-03-12T00:31:21.568Z,-3.67
2023-03-12T00:33:50.932Z,-3.72
2023-03-12T00:36:21.328Z,-3.90
2023-03-12T00:38:49.649Z,-3.52
2023-03-12T00:41:19.642Z,-3.72
2023-03-12T00:43:48.253Z,-3.78
2023-03-12T00:46:18.476Z,-3.71
2023-03-12T00:48:47.016Z,-3.75
2023-03-12T00:51:15.419Z,-3.71
2023-03-12T00:53:43.877Z,-3.70
2023-03-12T00:56:12.648Z,-3.92
2023-03-12T00:58:42.726Z,-3.72
2023-03-12T01:01:11.370Z,-3.74
2023-03-12T01:04:05.658Z,-3.50
2023-03-12T01:06:33.951Z,-3.71
2023-03-12T01:09:10.079Z,-3.68
2023-03-12T01:11:39.272Z,-3.84
2023-03-12T01:14:09.852Z,-3.85
2023-03-12T01:16:38.229Z,-3.78
2023-03-12T01:19:07.824Z,-3.94
2023-03-12T01:21:36.144Z,-4.09
2023-03-12T01:24:04.938Z,-3.99
2023-03-12T01:26:33.315Z,-4.05
2023-03-12T01:29:01.539Z,-4.03
2023-03-12T01:31:29.911Z,-4.05
2023-03-12T01:33:59.278Z,-4.00
2023-03-12T01:36:30.742Z,-3.83
2023-03-12T01:39:00.655Z,-3.90
2023-03-12T01:41:33.063Z,-4.08
2023-03-12T01:44:03.878Z,-3.93
2023-03-12T01:46:36.428Z,-4.28
2023-03-12T01:49:14.243Z,-4.00
2023-03-12T01:51:47.820Z,-3.95
2023-03-12T01:54:20.976Z,-3.97
2023-03-12T01:56:50.596Z,-3.83
2023-03-12T01:59:24.921Z,-3.90
2023-03-12T02:01:53.825Z,-3.89
2023-03-12T02:04:25.294Z,-3.84
2023-03-12T02:07:04.392Z,-3.83
2023-03-12T02:09:34.980Z,-3.73
2023-03-12T02:12:03.212Z,-3.86
2023-03-12T02:14:32.086Z,-3.95
2023-03-12T02:17:00.656Z,-3.85
2023-03-12T02:19:39.504Z,-3.87
2023-03-12T02:22:10.138Z,-3.77
2023-03-12T02:24:45.667Z,-3.72
2023-03-12T02:27:17.648Z,-3.82
2023-03-12T02:29:46.976Z,-3.79
2023-03-12T02:32:23.048Z,-3.71
2023-03-12T02:34:52.165Z,-3.69
2023-03-12T02:37:21.075Z,-3.76
2023-03-12T02:39:58.778Z,-4.45
2023-03-12T02:42:29.034Z,-3.69
2023-03-12T02:44:57.349Z,-3.81
2023-03-12T02:47:26.486Z,-3.73
2023-03-12T02:49:55.652Z,-3.74
2023-03-12T02:52:23.928Z,-3.66
2023-03-12T02:54:52.311Z,-3.67
2023-03-12T02:57:20.971Z,-3.64
2023-03-12T02:59:50.589Z,-3.76
2023-03-12T03:02:19.067Z,-3.49
2023-03-12T03:04:49.361Z,-3.61
2023-03-12T03:07:18.356Z,-3.64
2023-03-12T03:09:46.624Z,-3.57
2023-03-12T03:12:39.662Z,-3.55
2023-03-12T03:15:12.416Z,-3.68
2023-03-12T03:17:41.613Z,-3.44
2023-03-12T03:20:12.123Z,-3.43
2023-03-12T03:22:40.655Z,-3.45
2023-03-12T03:25:11.020Z,-3.35
2023-03-12T03:27:39.313Z,-3.35
2023-03-12T03:30:14.696Z,-3.41
2023-03-12T03:32:46.355Z,-3.40
2023-03-12T03:35:15.941Z,-3.31
2023-03-12T03:37:44.197Z,-3.29
2023-03-12T03:40:13.731Z,-3.35
2023-03-12T03:42:42.372Z,-3.35
2023-03-12T03:45:13.211Z,-3.33
2023-03-12T03:47:44.044Z,-3.45
2023-03-12T03:50:13.689Z,-3.39
2023-03-12T03:52:41.937Z,-3.24
2023-03-12T03:55:11.105Z,-3.75
2023-03-12T03:57:40.469Z,-3.07
2023-03-12T04:00:13.463Z,-3.26
2023-03-12T04:02:46.432Z,-3.26
2023-03-12T04:05:19.505Z,-3.17
2023-03-12T04:07:49.230Z,-3.24
2023-03-12T04:10:21.615Z,-3.20
2023-03-12T04:12:50.018Z,-3.20
2023-03-12T04:15:20.089Z,-3.08
2023-03-12T04:17:49.971Z,-2.91
2023-03-12T04:20:19.329Z,-3.15
2023-03-12T04:22:47.783Z,-3.04
2023-03-12T04:25:17.773Z,-3.10
2023-03-12T04:27:46.118Z,-2.98
2023-03-12T04:30:15.772Z,-3.02
2023-03-12T04:32:47.545Z,-2.98
2023-03-12T04:35:16.331Z,-2.89
2023-03-12T04:37:44.705Z,-3.01
2023-03-12T04:40:15.510Z,-2.93
2023-03-12T04:42:43.915Z,-2.77
2023-03-12T04:45:13.316Z,-2.84
2023-03-12T04:47:47.450Z,-2.86
2023-03-12T04:50:16.854Z,-2.76
2023-03-12T04:52:45.472Z,-2.85
2023-03-12T04:55:14.227Z,-2.89
2023-03-12T04:57:42.895Z,-2.77
2023-03-12T05:00:14.071Z,-2.61
2023-03-12T05:02:48.907Z,-2.73
2023-03-12T05:05:17.506Z,-2.69
2023-03-12T05:07:45.824Z,-2.72
2023-03-12T05:10:14.129Z,-2.69
2023-03-12T05:12:42.500Z,-2.62
2023-03-12T05:15:15.134Z,-2.42
2023-03-12T05:17:44.916Z,-2.36
2023-03-12T05:20:15.401Z,-2.43
2023-03-12T05:22:44.189Z,-2.45
2023-03-12T05:25:13.816Z,-2.48
2023-03-12T05:27:45.276Z,-2.37
2023-03-12T05:30:16.254Z,-2.27
2023-03-12T05:32:44.931Z,-2.42
2023-03-12T05:35:14.948Z,-2.50
2023-03-12T05:37:44.954Z,-2.55
2023-03-12T05:40:14.983Z,-2.40
2023-03-12T05:42:43.708Z,-2.32
2023-03-12T05:45:12.878Z,-2.25
2023-03-12T05:47:45.924Z,-2.20
2023-03-12T05:50:17.137Z,-2.10
2023-03-12T05:52:45.826Z,-2.10
2023-03-12T05:55:14.319Z,-2.05
2023-03-12T05:57:43.452Z,-2.03
2023-03-12T06:00:15.939Z,-1.95
2023-03-12T06:02:52.260Z,-1.97
2023-03-12T06:05:22.677Z,-1.87
2023-03-12T06:07:51.390Z,-1.88
2023-03-12T06:10:19.926Z,-1.79
2023-03-12T06:12:48.112Z,-1.92
2023-03-12T06:15:16.611Z,-1.87
2023-03-12T06:17:44.924Z,-1.75
2023-03-12T06:20:14.426Z,-1.68
2023-03-12T06:22:44.036Z,-1.83
2023-03-12T06:25:12.261Z,-1.00
2023-03-12T06:27:42.045Z,-1.77
2023-03-12T06:30:11.931Z,-1.61
2023-03-12T06:32:40.145Z,-1.58
2023-03-12T06:35:09.316Z,-1.48
2023-03-12T06:37:37.659Z,-1.45
2023-03-12T06:40:10.991Z,-1.41
2023-03-12T06:42:39.193Z,-1.74
2023-03-12T06:45:08.982Z,-1.25
2023-03-12T06:47:37.524Z,-1.17
2023-03-12T06:50:06.545Z,-1.13
2023-03-12T06:52:34.736Z,-1.18
2023-03-12T06:55:02.924Z,-1.04
2023-03-12T06:57:32.468Z,-0.97
2023-03-12T07:00:00.678Z,-0.92
2023-03-12T07:02:29.001Z,-0.96
2023-03-12T07:05:10.889Z,-0.94
2023-03-12T07:07:39.856Z,-0.83
2023-03-12T07:10:09.594Z,-0.81
2023-03-12T07:12:39.329Z,-0.90
2023-03-12T07:15:09.000Z,-0.91
2023-03-12T07:17:37.328Z,-0.82
2023-03-12T07:20:06.808Z,-1.23
2023-03-12T07:22:34.976Z,-1.01
2023-03-12T07:25:03.373Z,-0.65
2023-03-12T07:27:31.639Z,-0.75
2023-03-12T07:30:01.241Z,-0.67
2023-03-12T07:32:29.481Z,-0.49
2023-03-12T07:34:57.717Z,-1.91
2023-03-12T07:37:25.920Z,-0.50
2023-03-12T07:39:54.746Z,-0.41
2023-03-12T07:42:23.574Z,-0.36
2023-03-12T07:44:51.843Z,-0.34
2023-03-12T07:47:24.466Z,-0.22
2023-03-12T07:49:54.006Z,-0.21
2023-03-12T07:52:23.525Z,-0.96
2023-03-12T07:54:52.757Z,-0.01
2023-03-12T07:57:21.180Z,0.14
2023-03-12T07:59:50.183Z,-0.01
2023-03-12T08:02:19.232Z,0.20
2023-03-12T08:04:49.347Z,0.33
2023-03-12T08:07:17.949Z,0.25
2023-03-12T08:09:49.471Z,0.34
2023-03-12T08:12:18.307Z,0.53
2023-03-12T08:14:46.753Z,0.47
2023-03-12T08:17:15.900Z,0.52
2023-03-12T08:19:44.164Z,0.55
2023-03-12T08:22:13.820Z,0.51
2023-03-12T08:24:42.024Z,0.52
2023-03-12T08:27:12.104Z,-0.02
2023-03-12T08:29:41.162Z,0.43
2023-03-12T08:32:10.595Z,0.48
2023-03-12T08:34:38.998Z,0.29
2023-03-12T08:37:07.609Z,0.66
2023-03-12T08:39:37.553Z,0.75
2023-03-12T08:42:07.693Z,0.88
2023-03-12T08:44:35.944Z,1.00
2023-03-12T08:47:04.220Z,0.92
2023-03-12T08:49:32.534Z,0.99
2023-03-12T08:52:01.134Z,0.94
2023-03-12T08:54:29.683Z,0.92
2023-03-12T08:56:59.223Z,1.03
2023-03-12T08:59:27.488Z,1.10
2023-03-12T09:01:55.659Z,1.20
2023-03-12T09:04:23.955Z,1.32
2023-03-12T09:06:52.196Z,1.37
2023-03-12T09:09:21.733Z,1.47
2023-03-12T09:11:50.048Z,1.41
2023-03-12T09:15:01.164Z,1.54
2023-03-12T09:17:08.025Z,1.74
2023-03-12T09:19:36.271Z,1.70
2023-03-12T09:22:04.505Z,1.78
2023-03-12T09:24:32.771Z,1.83
2023-03-12T09:27:01.097Z,1.79
2023-03-12T09:29:30.720Z,1.80
2023-03-12T09:31:59.684Z,1.77
2023-03-12T09:34:27.917Z,1.91
2023-03-12T09:36:56.121Z,1.93
2023-03-12T09:39:24.287Z,1.96
2023-03-12T09:41:53.157Z,1.96
2023-03-12T09:44:30.806Z,2.10
2023-03-12T09:47:03.583Z,2.23
2023-03-12T09:49:36.493Z,2.19
2023-03-12T09:52:17.719Z,2.38
2023-03-12T09:54:53.521Z,2.43
2023-03-12T09:57:25.899Z,2.33
2023-03-12T09:59:55.597Z,2.49
2023-03-12T10:02:44.731Z,2.53
2023-03-12T10:05:20.233Z,2.61
2023-03-12T10:07:53.280Z,1.70
2023-03-12T10:10:38.455Z,2.74
2023-03-12T10:13:22.412Z,2.67
2023-03-12T10:16:12.794Z,2.57
2023-03-12T10:19:05.067Z,2.50
2023-03-12T10:21:44.277Z,2.57
2023-03-12T10:24:28.855Z,2.63
2023-03-12T10:27:01.783Z,2.64
2023-03-12T10:29:34.381Z,2.77
2023-03-12T10:32:08.042Z,3.59
2023-03-12T10:34:43.082Z,3.05
2023-03-12T10:37:19.091Z,3.14
2023-03-12T10:39:48.253Z,3.14
2023-03-12T10:42:19.918Z,3.06
2023-03-12T10:44:51.616Z,3.01
2023-03-12T10:47:35.280Z,2.99
2023-03-12T10:50:17.385Z,3.15
2023-03-12T10:52:47.255Z,3.19
2023-03-12T10:55:26.207Z,3.22
2023-03-12T10:57:55.124Z,3.16
2023-03-12T11:00:26.736Z,3.25
2023-03-12T11:03:03.674Z,3.42
2023-03-12T11:05:37.650Z,3.29
2023-03-12T11:08:23.291Z,3.34
2023-03-12T11:10:53.247Z,3.32
2023-03-12T11:13:29.801Z,3.53
2023-03-12T11:15:59.933Z,3.36
2023-03-12T11:18:34.211Z,3.52
2023-03-12T11:21:19.946Z,4.11
2023-03-12T11:24:07.679Z,3.52
2023-03-12T11:26:44.166Z,3.66
2023-03-12T11:29:24.113Z,3.71
2023-03-12T11:34:55.485Z,3.79
2023-03-12T11:37:38.551Z,3.77
2023-03-12T11:40:20.352Z,3.96
2023-03-12T11:43:07.552Z,3.91
2023-03-12T11:45:47.997Z,3.96
2023-03-12T11:48:25.767Z,4.07
2023-03-12T11:51:13.525Z,4.15
2023-03-12T11:53:59.092Z,4.21
2023-03-12T11:56:30.719Z,4.28
2023-03-12T11:59:24.890Z,3.52
2023-03-12T12:02:11.745Z,4.48
2023-03-12T12:05:11.351Z,4.48
2023-03-12T12:07:55.559Z,4.60
2023-03-12T12:10:29.839Z,4.46
2023-03-12T12:13:09.725Z,4.57
2023-03-12T12:15:48.957Z,4.64
2023-03-12T12:18:36.959Z,4.60
2023-03-12T12:21:13.946Z,4.41
2023-03-12T12:23:55.293Z,4.63
2023-03-12T12:26:30.609Z,4.62
2023-03-12T12:29:22.593Z,4.64
2023-03-12T12:31:56.070Z,4.55
2023-03-12T12:35:04.777Z,4.60
2023-03-12T12:37:46.337Z,4.63
2023-03-12T12:40:25.408Z,4.66
2023-03-12T12:43:24.705Z,4.66
2023-03-12T12:45:57.118Z,4.56
2023-03-12T12:48:33.683Z,4.61
2023-03-12T12:51:05.205Z,4.16
2023-03-12T12:53:43.940Z,4.75
2023-03-12T12:56:23.063Z,4.79
2023-03-12T12:59:27.171Z,5.00
2023-03-12T13:01:57.632Z,4.89
2023-03-12T13:04:29.901Z,4.99
2023-03-12T13:07:03.145Z,5.02
2023-03-12T13:09:41.629Z,5.10
2023-03-12T13:12:20.007Z,5.10
2023-03-12T13:14:49.376Z,5.23
2023-03-12T13:17:28.285Z,5.11
2023-03-12T13:20:12.058Z,5.24
2023-03-12T13:22:56.660Z,5.32
2023-03-12T13:25:40.901Z,5.35
2023-03-12T13:28:41.957Z,5.53
2023-03-12T13:31:39.644Z,5.75
2023-03-12T13:34:55.176Z,5.64
2023-03-12T13:38:01.095Z,5.33
2023-03-12T13:41:02.418Z,5.86
2023-03-12T13:43:51.552Z,5.84
2023-03-12T13:46:44.206Z,6.01
2023-03-12T13:49:19.078Z,6.28
2023-03-12T13:52:02.439Z,6.47
2023-03-12T13:54:36.054Z,6.60
2023-03-12T13:57:12.352Z,6.66
2023-03-12T13:59:47.139Z,6.55
2023-03-12T14:02:25.264Z,6.72
2023-03-12T14:04:54.200Z,6.72
2023-03-12T14:08:12.069Z,6.79
2023-03-12T14:11:08.300Z,6.78
2023-03-12T14:14:08.462Z,6.78
2023-03-12T14:16:43.228Z,6.82
2023-03-12T14:19:15.445Z,6.88
2023-03-12T14:21:46.766Z,7.04
2023-03-12T14:24:25.900Z,7.22
2023-03-12T14:26:55.234Z,7.35
2023-03-12T14:29:29.536Z,7.27
2023-03-12T14:32:05.486Z,7.32
2023-03-12T14:34:40.306Z,7.38
2023-03-12T14:37:16.437Z,7.27
2023-03-12T14:39:50.628Z,7.18
2023-03-12T14:42:26.092Z,7.45
2023-03-12T14:45:01.502Z,7.54
2023-03-12T14:47:31.342Z,7.43
2023-03-12T14:49:59.732Z,7.58
2023-03-12T14:52:30.669Z,7.49
2023-03-12T14:55:01.278Z,7.70
2023-03-12T14:57:29.780Z,7.65
2023-03-12T15:00:00.182Z,7.52
2023-03-12T15:02:32.937Z,7.59
2023-03-12T15:05:03.481Z,7.63
2023-03-12T15:07:44.400Z,7.58
2023-03-12T15:10:22.015Z,7.40
2023-03-12T15:12:51.690Z,7.39
2023-03-12T15:15:36.286Z,7.58
2023-03-12T15:18:08.921Z,7.57
2023-03-12T15:20:37.537Z,7.55
2023-03-12T15:23:07.040Z,7.59
2023-03-12T15:25:36.116Z,7.45
2023-03-12T15:28:25.572Z,7.74
2023-03-12T15:31:11.780Z,7.84
2023-03-12T15:33:43.402Z,7.81
2023-03-12T15:36:30.781Z,7.89
2023-03-12T15:39:05.489Z,7.90
2023-03-12T15:41:44.001Z,7.92
2023-03-12T15:44:20.832Z,7.93
2023-03-12T15:46:51.972Z,8.04
2023-03-12T15:49:25.616Z,8.14
2023-03-12T15:52:04.853Z,8.19
2023-03-12T15:54:34.296Z,8.21
2023-03-12T15:57:24.169Z,8.19
2023-03-12T16:00:15.437Z,7.90
2023-03-12T16:02:54.226Z,8.12
2023-03-12T16:05:27.164Z,8.04
2023-03-12T16:07:55.567Z,8.01
2023-03-12T16:10:27.053Z,7.70
2023-03-12T16:13:02.978Z,7.89
2023-03-12T16:15:34.180Z,7.83
2023-03-12T16:18:02.696Z,7.89
2023-03-12T16:20:32.491Z,7.87
2023-03-12T16:23:00.710Z,7.86
2023-03-12T16:25:29.173Z,7.85
2023-03-12T16:27:59.896Z,7.80
2023-03-12T16:30:32.183Z,7.75
2023-03-12T16:33:03.210Z,7.80
2023-03-12T16:35:34.162Z,7.63
2023-03-12T16:38:07.071Z,7.74
2023-03-12T16:40:39.044Z,7.60
2023-03-12T16:43:15.015Z,7.69
2023-03-12T16:45:46.812Z,7.56
2023-03-12T16:48:18.656Z,7.60
2023-03-12T16:50:52.194Z,7.69
2023-03-12T16:53:21.588Z,7.74
2023-03-12T16:55:53.650Z,7.01
2023-03-12T16:58:24.599Z,7.85
2023-03-12T17:00:54.702Z,7.76
2023-03-12T17:03:33.783Z,7.73
2023-03-12T17:06:07.580Z,7.70
2023-03-12T17:08:36.149Z,7.77
2023-03-12T17:11:18.198Z,7.71
2023-03-12T17:13:52.105Z,7.57
2023-03-12T17:16:21.010Z,7.66
2023-03-12T17:18:49.603Z,7.75
2023-03-12T17:21:22.294Z,7.72
2023-03-12T17:23:51.862Z,7.74
2023-03-12T17:26:20.853Z,7.60
2023-03-12T17:28:49.290Z,7.67
2023-03-12T17:31:17.793Z,7.48
2023-03-12T17:33:46.391Z,7.40
2023-03-12T17:36:15.038Z,7.50
2023-03-12T17:38:44.981Z,6.93
2023-03-12T17:41:25.630Z,7.44
2023-03-12T17:43:58.478Z,7.54
2023-03-12T17:46:26.847Z,7.54
2023-03-12T17:48:55.678Z,7.38
2023-03-12T17:51:25.280Z,7.40
2023-03-12T17:53:54.900Z,7.37
2023-03-12T17:56:23.460Z,7.36
2023-03-12T17:58:51.620Z,7.26
2023-03-12T18:01:19.989Z,7.27
2023-03-12T18:03:50.054Z,7.25
2023-03-12T18:06:19.843Z,7.25
2023-03-12T18:08:48.242Z,7.14
2023-03-12T18:11:17.796Z,7.26
2023-03-12T18:13:48.430Z,7.25
2023-03-12T18:16:19.138Z,7.12
2023-03-12T18:18:52.117Z,7.14
2023-03-12T18:21:20.840Z,7.11
2023-03-12T18:23:51.038Z,7.14
2023-03-12T18:26:20.707Z,7.17
2023-03-12T18:28:49.677Z,7.09
2023-03-12T18:31:17.999Z,7.08
2023-03-12T18:33:46.621Z,7.14
2023-03-12T18:36:15.173Z,7.12
2023-03-12T18:38:44.765Z,7.22
2023-03-12T18:41:14.989Z,7.25
2023-03-12T18:43:45.196Z,7.15
2023-03-12T18:46:13.948Z,7.12
2023-03-12T18:48:44.178Z,7.03
2023-03-12T18:51:12.696Z,7.13
2023-03-12T18:53:41.361Z,7.07
2023-03-12T18:56:09.755Z,7.10
2023-03-12T18:58:38.542Z,6.98
2023-03-12T19:01:09.068Z,7.12
2023-03-12T19:03:37.489Z,7.05
2023-03-12T19:06:09.063Z,6.97
2023-03-12T19:08:38.210Z,7.11
2023-03-12T19:11:07.286Z,7.09
2023-03-12T19:13:35.657Z,7.08
2023-03-12T19:16:08.245Z,7.14
2023-03-12T19:18:39.259Z,7.11
2023-03-12T19:21:08.954Z,7.05
2023-03-12T19:23:37.272Z,7.14
2023-03-12T19:26:07.516Z,7.00
2023-03-12T19:28:36.719Z,6.19
2023-03-12T19:31:07.681Z,7.05
2023-03-12T19:33:38.038Z,7.03
2023-03-12T19:36:07.380Z,7.04
2023-03-12T19:38:35.824Z,7.02
2023-03-12T19:41:04.148Z,7.01
2023-03-12T19:43:32.334Z,7.06
2023-03-12T19:46:00.635Z,7.09
2023-03-12T19:48:28.964Z,7.06
2023-03-12T19:50:58.644Z,7.02
2023-03-12T19:53:26.977Z,7.16
2023-03-12T19:55:55.525Z,7.02
2023-03-12T19:58:23.798Z,7.20
2023-03-12T20:00:51.996Z,7.13
2023-03-12T20:03:20.739Z,7.22
2023-03-12T20:05:50.493Z,7.23
2023-03-12T20:08:20.905Z,7.26
2023-03-12T20:10:49.470Z,7.18
2023-03-12T20:13:18.592Z,7.27
2023-03-12T20:15:48.448Z,6.80
2023-03-12T20:18:17.248Z,7.26
2023-03-12T20:20:47.619Z,7.16
2023-03-12T20:23:16.086Z,7.25
2023-03-12T20:25:49.891Z,7.27
2023-03-12T20:28:18.811Z,7.30
2023-03-12T20:30:47.017Z,7.29
2023-03-12T20:33:15.328Z,6.56
2023-03-12T20:35:43.560Z,7.15
2023-03-12T20:38:11.772Z,7.25
2023-03-12T20:40:40.472Z,7.03
2023-03-12T20:43:10.127Z,7.15
2023-03-12T20:45:38.354Z,7.17
2023-03-12T20:48:07.341Z,7.19
2023-03-12T20:50:39.745Z,6.99
2023-03-12T20:53:08.637Z,6.44
2023-03-12T20:55:39.518Z,7.19
2023-03-12T20:58:09.131Z,7.15
2023-03-12T21:00:37.341Z,7.01
2023-03-12T21:03:05.735Z,7.09
2023-03-12T21:05:34.097Z,7.06
2023-03-12T21:08:08.653Z,7.06
2023-03-12T21:11:03.245Z,7.03
2023-03-12T21:13:32.878Z,7.00
2023-03-12T21:16:01.193Z,7.02
2023-03-12T21:18:29.377Z,6.96
2023-03-12T21:21:03.391Z,6.97
2023-03-12T21:23:32.095Z,7.08
2023-03-12T21:26:09.224Z,7.11
2023-03-12T21:28:39.164Z,5.96
2023-03-12T21:31:08.628Z,7.03
2023-03-12T21:33:37.600Z,7.03
2023-03-12T21:36:07.155Z,6.40
2023-03-12T21:38:36.145Z,7.02
2023-03-12T21:41:07.058Z,6.95
2023-03-12T21:43:35.316Z,6.60
2023-03-12T21:46:09.828Z,7.03
2023-03-12T21:48:38.142Z,7.08
2023-03-12T21:51:08.882Z,7.07
2023-03-12T21:53:41.858Z,7.08
2023-03-12T21:56:10.960Z,7.18
2023-03-12T21:58:39.442Z,7.20
2023-03-12T22:01:12.002Z,7.14
2023-03-12T22:03:41.789Z,7.11
2023-03-12T22:06:10.833Z,7.21
2023-03-12T22:08:40.240Z,7.20
2023-03-12T22:11:09.531Z,7.17
2023-03-12T22:13:38.632Z,7.14
2023-03-12T22:16:09.914Z,7.18
2023-03-12T22:18:40.867Z,7.06
2023-03-12T22:21:13.292Z,7.16
2023-03-12T22:23:41.512Z,7.12
2023-03-12T22:26:10.137Z,7.18
2023-03-12T22:28:38.375Z,7.07
2023-03-12T22:31:10.749Z,7.04
2023-03-12T22:33:39.106Z,6.93
2023-03-12T22:36:10.515Z,7.12
2023-03-12T22:38:39.876Z,7.12
2023-03-12T22:41:17.141Z,6.97
2023-03-12T22:43:46.377Z,7.03
2023-03-12T22:46:16.864Z,7.21
2023-03-12T22:48:45.468Z,7.11
2023-03-12T22:51:14.774Z,7.18
2023-03-12T22:53:43.014Z,7.09
2023-03-12T22:56:14.110Z,7.26
2023-03-12T22:58:42.736Z,7.06
2023-03-12T23:01:13.639Z,7.15
2023-03-12T23:04:10.887Z,7.17
2023-03-12T23:06:39.156Z,7.05
2023-03-12T23:09:07.854Z,7.07
2023-03-12T23:11:38.834Z,7.17
2023-03-12T23:14:06.987Z,7.08
2023-03-12T23:16:35.361Z,7.14
2023-03-12T23:19:05.004Z,7.07
2023-03-12T23:21:33.218Z,7.01
2023-03-12T23:24:01.386Z,7.00
2023-03-12T23:26:30.209Z,7.08
2023-03-12T23:29:00.134Z,7.11
2023-03-12T23:31:29.116Z,7.07
2023-03-12T23:33:58.494Z,7.15
2023-03-12T23:36:28.496Z,7.09
2023-03-12T23:38:56.909Z,7.14
2023-03-12T23:41:26.941Z,7.72
2023-03-12T23:43:55.105Z,7.15
2023-03-12T23:46:23.369Z,7.01
2023-03-12T23:48:51.910Z,7.10
2023-03-12T23:51:22.872Z,7.26
2023-03-12T23:53:55.673Z,7.22
2023-03-12T23:56:27.029Z,7.16
2023-03-12T23:58:55.707Z,7.26
